Time;durP1;ratioP1;P1;durP2;ratioP2;P2;SDS_P1;SDS_P2;PMS_P1;PMS_P2;Temp;Humidity;BMP_temperature;BMP_pressure;BME280_temperature;BME280_humidity;BME280_pressure;Samples;Min_cycle;Max_cycle;Signal;HPM_P1;HPM_P2
2024/03/18 00:00:16;;;;;;;45.50;17.17;;;;;;;;;;5006329;28;20053;-43
2024/03/18 00:02:44;;;;;;;45.78;16.63;;;;;;;;;;5006445;28;20022;-41
2024/03/18 00:05:14;;;;;;;40.78;17.02;;;;;;;;;;5006463;28;20373;-41
2024/03/18 00:07:41;;;;;;;32.08;15.80;;;;;;;;;;5005747;28;20254;-39
2024/03/18 00:10:12;;;;;;;32.95;15.88;;;;;;;;;;5006390;28;20026;-40
2024/03/18 00:12:42;;;;;;;44.33;17.08;;;;;;;;;;5005919;28;20326;-35
2024/03/18 00:15:09;;;;;;;30.33;15.80;;;;;;;;;;5006075;28;20038;-38
2024/03/18 00:17:36;;;;;;;33.15;15.35;;;;;;;;;;5006192;28;20318;-34
2024/03/18 00:20:11;;;;;;;35.58;16.00;;;;;;;;;;5005898;28;20035;-44
2024/03/18 00:22:42;;;;;;;36.17;16.00;;;;;;;;;;5005960;28;20387;-41
2024/03/18 00:25:11;;;;;;;28.35;15.10;;;;;;;;;;5006061;28;20022;-41
2024/03/18 00:27:37;;;;;;;32.30;15.75;;;;;;;;;;5006013;28;20077;-39
2024/03/18 00:30:11;;;;;;;30.92;15.52;;;;;;;;;;5006098;28;20037;-42
2024/03/18 00:32:44;;;;;;;34.45;15.63;;;;;;;;;;4988462;28;20033;-40
2024/03/18 00:35:13;;;;;;;32.35;15.45;;;;;;;;;;5005970;28;20033;-40
2024/03/18 00:37:40;;;;;;;31.23;16.02;;;;;;;;;;5005743;28;20093;-41
2024/03/18 00:40:10;;;;;;;26.48;15.50;;;;;;;;;;5005288;28;20050;-40
2024/03/18 00:42:37;;;;;;;25.95;15.38;;;;;;;;;;5005680;28;20019;-42
2024/03/18 00:45:04;;;;;;;25.60;15.27;;;;;;;;;;5006245;28;20035;-43
2024/03/18 00:47:31;;;;;;;22.08;15.23;;;;;;;;;;5005774;28;20081;-39
2024/03/18 00:49:59;;;;;;;25.23;15.88;;;;;;;;;;5005444;28;20031;-42
2024/03/18 00:52:25;;;;;;;24.92;16.00;;;;;;;;;;5005412;28;20026;-41
2024/03/18 00:54:52;;;;;;;26.08;16.15;;;;;;;;;;5005356;28;20101;-41
2024/03/18 00:57:18;;;;;;;30.80;16.38;;;;;;;;;;5005234;28;20022;-44
2024/03/18 00:59:45;;;;;;;35.08;18.58;;;;;;;;;;5005025;28;20319;-39
2024/03/18 01:02:11;;;;;;;38.20;17.50;;;;;;;;;;5005095;28;20226;-41
2024/03/18 01:04:38;;;;;;;32.03;17.23;;;;;;;;;;5005033;28;20062;-40
2024/03/18 01:07:06;;;;;;;30.58;16.17;;;;;;;;;;5005211;28;20022;-39
2024/03/18 01:09:33;;;;;;;28.75;16.40;;;;;;;;;;5004738;28;20060;-44
2024/03/18 01:11:59;;;;;;;29.10;16.40;;;;;;;;;;5005006;28;20214;-40
2024/03/18 01:14:26;;;;;;;25.73;16.23;;;;;;;;;;5005107;28;20029;-41
2024/03/18 01:16:52;;;;;;;24.80;16.92;;;;;;;;;;5005225;28;20034;-41
2024/03/18 01:19:19;;;;;;;23.52;16.35;;;;;;;;;;5003846;28;20038;-41
2024/03/18 01:21:46;;;;;;;28.95;16.25;;;;;;;;;;5005308;28;20026;-38
2024/03/18 01:24:12;;;;;;;24.13;16.00;;;;;;;;;;5004327;28;20238;-38
2024/03/18 01:26:39;;;;;;;22.58;15.82;;;;;;;;;;5005322;28;20037;-39
2024/03/18 01:29:06;;;;;;;28.77;16.20;;;;;;;;;;5004965;28;20029;-38
2024/03/18 01:31:32;;;;;;;28.65;16.42;;;;;;;;;;5005046;28;20026;-40
2024/03/18 01:34:01;;;;;;;28.65;16.77;;;;;;;;;;5004676;28;20097;-39
2024/03/18 01:36:28;;;;;;;31.70;16.73;;;;;;;;;;5004994;28;20085;-37
2024/03/18 01:38:54;;;;;;;37.15;16.80;;;;;;;;;;5004430;28;20024;-38
2024/03/18 01:41:23;;;;;;;27.02;16.58;;;;;;;;;;5004773;28;20054;-37
2024/03/18 01:43:49;;;;;;;35.35;16.65;;;;;;;;;;5004731;28;20014;-38
2024/03/18 01:46:17;;;;;;;22.58;16.48;;;;;;;;;;5004355;28;20078;-39
2024/03/18 01:48:47;;;;;;;27.50;16.77;;;;;;;;;;5004703;28;20022;-43
2024/03/18 01:51:14;;;;;;;25.67;17.90;;;;;;;;;;5004836;28;20210;-43
2024/03/18 01:53:42;;;;;;;26.17;16.75;;;;;;;;;;5004167;28;20029;-45
2024/03/18 01:56:09;;;;;;;24.98;16.48;;;;;;;;;;5004619;28;20037;-37
2024/03/18 01:58:38;;;;;;;20.95;17.40;;;;;;;;;;5004306;28;20022;-38
2024/03/18 02:01:06;;;;;;;29.95;16.48;;;;;;;;;;5004542;28;20030;-35
2024/03/18 02:03:32;;;;;;;33.13;16.58;;;;;;;;;;5004223;28;20049;-35
2024/03/18 02:05:59;;;;;;;34.10;17.58;;;;;;;;;;5004578;28;20298;-37
2024/03/18 02:08:26;;;;;;;37.35;16.95;;;;;;;;;;5004060;28;20332;-35
2024/03/18 02:10:52;;;;;;;28.85;16.85;;;;;;;;;;5004541;28;20267;-37
2024/03/18 02:13:19;;;;;;;86.20;21.63;;;;;;;;;;5004232;28;20022;-37
2024/03/18 02:15:46;;;;;;;61.85;18.42;;;;;;;;;;5004205;28;20041;-35
2024/03/18 02:18:12;;;;;;;49.17;17.50;;;;;;;;;;5004003;28;20234;-36
2024/03/18 02:20:39;;;;;;;46.53;18.65;;;;;;;;;;5004421;28;20026;-35
2024/03/18 02:23:05;;;;;;;38.83;16.70;;;;;;;;;;5004186;28;20206;-36
2024/03/18 02:25:32;;;;;;;29.08;17.30;;;;;;;;;;5004150;28;20061;-36
2024/03/18 02:27:58;;;;;;;32.60;16.35;;;;;;;;;;5004447;28;20082;-34
2024/03/18 02:30:25;;;;;;;25.08;17.25;;;;;;;;;;5005557;28;20383;-34
2024/03/18 02:32:52;;;;;;;25.70;17.15;;;;;;;;;;5007862;28;20322;-39
2024/03/18 02:35:18;;;;;;;24.50;17.60;;;;;;;;;;5008208;28;20371;-41
2024/03/18 02:37:45;;;;;;;24.63;17.27;;;;;;;;;;5007947;28;20029;-34
2024/03/18 02:40:13;;;;;;;28.75;16.92;;;;;;;;;;5007486;28;20085;-46
2024/03/18 02:42:40;;;;;;;25.48;17.38;;;;;;;;;;5008303;28;20022;-37
2024/03/18 02:45:11;;;;;;;23.15;17.30;;;;;;;;;;5007940;28;20023;-34
2024/03/18 02:47:41;;;;;;;28.42;17.95;;;;;;;;;;5008030;28;20050;-34
2024/03/18 02:50:14;;;;;;;22.63;17.67;;;;;;;;;;5007774;28;20030;-41
2024/03/18 02:52:42;;;;;;;26.40;18.98;;;;;;;;;;5007525;28;20085;-37
2024/03/18 02:55:09;;;;;;;23.92;18.23;;;;;;;;;;5007932;28;20041;-36
2024/03/18 02:57:36;;;;;;;24.65;16.80;;;;;;;;;;5007740;28;20382;-37
2024/03/18 03:00:05;;;;;;;24.25;17.60;;;;;;;;;;5007376;28;20142;-40
2024/03/18 03:02:33;;;;;;;24.98;17.88;;;;;;;;;;5007413;28;20022;-33
2024/03/18 03:05:00;;;;;;;26.80;17.33;;;;;;;;;;5007517;28;20022;-35
2024/03/18 03:07:26;;;;;;;20.80;17.50;;;;;;;;;;5007263;28;20018;-34
2024/03/18 03:09:53;;;;;;;24.08;17.17;;;;;;;;;;5007859;28;20041;-35
2024/03/18 03:12:19;;;;;;;24.10;18.02;;;;;;;;;;5007570;28;20049;-41
2024/03/18 03:14:46;;;;;;;22.42;16.52;;;;;;;;;;5007107;28;20045;-39
2024/03/18 03:17:13;;;;;;;24.75;17.70;;;;;;;;;;5007256;28;20072;-34
2024/03/18 03:19:40;;;;;;;22.98;17.42;;;;;;;;;;5007238;28;20023;-37
2024/03/18 03:22:07;;;;;;;23.10;17.52;;;;;;;;;;5007018;28;20200;-38
2024/03/18 03:24:33;;;;;;;22.30;19.33;;;;;;;;;;5007058;28;20018;-36
2024/03/18 03:27:00;;;;;;;23.67;19.95;;;;;;;;;;5007252;28;20345;-42
2024/03/18 03:29:26;;;;;;;28.88;21.52;;;;;;;;;;5006922;28;20026;-49
2024/03/18 03:31:53;;;;;;;35.20;26.30;;;;;;;;;;5006910;28;20026;-40
2024/03/18 03:34:19;;;;;;;25.92;23.20;;;;;;;;;;5006998;28;20030;-39
2024/03/18 03:36:46;;;;;;;25.13;21.77;;;;;;;;;;5007260;28;20210;-42
2024/03/18 03:39:13;;;;;;;26.38;22.55;;;;;;;;;;5006790;28;20394;-40
2024/03/18 03:41:41;;;;;;;38.78;26.55;;;;;;;;;;5006002;28;20342;-42
2024/03/18 03:44:08;;;;;;;125.75;89.57;;;;;;;;;;5006791;28;20019;-46
2024/03/18 03:46:34;;;;;;;110.65;82.72;;;;;;;;;;5007164;28;20331;-39
2024/03/18 03:49:03;;;;;;;74.40;57.40;;;;;;;;;;5006788;28;20365;-41
2024/03/18 03:51:29;;;;;;;66.60;49.78;;;;;;;;;;5006982;28;20026;-47
2024/03/18 03:53:57;;;;;;;61.90;46.50;;;;;;;;;;5006646;28;20034;-45
2024/03/18 03:56:24;;;;;;;52.22;41.55;;;;;;;;;;5006878;28;20034;-43
2024/03/18 03:58:52;;;;;;;53.55;39.20;;;;;;;;;;5006449;28;20200;-46
2024/03/18 04:01:21;;;;;;;40.22;33.15;;;;;;;;;;5006827;28;20314;-55
2024/03/18 04:03:48;;;;;;;41.65;32.15;;;;;;;;;;5006488;28;20018;-47
2024/03/18 04:06:14;;;;;;;33.33;28.85;;;;;;;;;;5006594;28;20031;-35
2024/03/18 04:08:41;;;;;;;32.13;27.48;;;;;;;;;;5006616;28;20056;-33
2024/03/18 04:11:07;;;;;;;35.50;26.45;;;;;;;;;;5006697;28;20050;-35
2024/03/18 04:13:34;;;;;;;30.65;23.67;;;;;;;;;;5006318;28;20022;-39
2024/03/18 04:16:02;;;;;;;25.70;22.90;;;;;;;;;;5006228;28;20034;-37
2024/03/18 04:18:29;;;;;;;25.77;21.88;;;;;;;;;;5006051;28;20030;-43
2024/03/18 04:20:57;;;;;;;26.23;21.13;;;;;;;;;;5006372;28;20053;-37
2024/03/18 04:23:24;;;;;;;23.63;20.40;;;;;;;;;;5006035;28;20057;-37
2024/03/18 04:25:50;;;;;;;24.08;20.30;;;;;;;;;;5006436;28;20082;-37
2024/03/18 04:28:17;;;;;;;24.92;19.20;;;;;;;;;;5005979;28;20022;-46
2024/03/18 04:30:43;;;;;;;23.30;19.58;;;;;;;;;;5006045;28;20026;-44
2024/03/18 04:33:10;;;;;;;21.27;19.15;;;;;;;;;;5005962;28;20022;-36
2024/03/18 04:35:37;;;;;;;21.67;18.85;;;;;;;;;;4988586;28;20322;-45
2024/03/18 04:38:03;;;;;;;24.35;18.45;;;;;;;;;;5005723;28;20210;-39
2024/03/18 04:40:30;;;;;;;39.25;19.75;;;;;;;;;;5005756;28;20112;-41
2024/03/18 04:42:57;;;;;;;31.00;19.42;;;;;;;;;;5005944;28;20019;-39
2024/03/18 04:45:24;;;;;;;26.13;19.23;;;;;;;;;;5005688;28;20089;-41
2024/03/18 04:47:51;;;;;;;30.55;18.52;;;;;;;;;;5005740;28;20019;-45
2024/03/18 04:50:22;;;;;;;25.35;18.30;;;;;;;;;;5005714;28;20080;-39
2024/03/18 04:52:52;;;;;;;23.58;18.80;;;;;;;;;;5005188;28;20033;-43
2024/03/18 04:55:20;;;;;;;21.70;18.20;;;;;;;;;;5005582;28;20046;-39
2024/03/18 04:57:47;;;;;;;22.63;18.25;;;;;;;;;;5005415;28;20026;-38
2024/03/18 05:00:14;;;;;;;20.92;17.77;;;;;;;;;;5005153;28;20271;-40
2024/03/18 05:02:41;;;;;;;22.85;18.35;;;;;;;;;;5005443;28;20061;-39
2024/03/18 05:05:09;;;;;;;25.38;17.92;;;;;;;;;;5005306;28;20097;-40
2024/03/18 05:07:36;;;;;;;25.30;17.45;;;;;;;;;;5005110;28;20018;-39
2024/03/18 05:10:03;;;;;;;20.23;17.73;;;;;;;;;;5005201;28;20034;-39
2024/03/18 05:12:30;;;;;;;19.08;17.08;;;;;;;;;;5005356;28;20026;-39
2024/03/18 05:14:57;;;;;;;23.05;17.73;;;;;;;;;;5005141;28;20030;-40
2024/03/18 05:17:24;;;;;;;21.92;17.30;;;;;;;;;;5005030;28;20084;-40
2024/03/18 05:19:55;;;;;;;23.33;18.38;;;;;;;;;;5005178;28;20306;-40
2024/03/18 05:22:22;;;;;;;19.52;17.48;;;;;;;;;;5004936;28;20026;-44
2024/03/18 05:24:48;;;;;;;22.75;17.52;;;;;;;;;;5005064;28;20076;-45
2024/03/18 05:27:16;;;;;;;20.02;17.75;;;;;;;;;;5004964;28;20022;-46
2024/03/18 05:29:43;;;;;;;25.83;17.45;;;;;;;;;;5004764;28;20061;-46
2024/03/18 05:32:10;;;;;;;19.20;17.25;;;;;;;;;;5004868;28;20391;-51
2024/03/18 05:34:37;;;;;;;19.13;17.00;;;;;;;;;;5004689;28;20196;-43
2024/03/18 05:37:04;;;;;;;21.10;17.63;;;;;;;;;;5005029;28;20330;-41
2024/03/18 05:39:34;;;;;;;19.90;17.88;;;;;;;;;;5004491;28;20069;-44
2024/03/18 05:42:00;;;;;;;21.90;17.80;;;;;;;;;;5004692;28;20046;-43
2024/03/18 05:44:27;;;;;;;23.60;18.52;;;;;;;;;;5004614;28;20142;-45
2024/03/18 05:46:54;;;;;;;21.95;18.88;;;;;;;;;;5004533;28;20366;-47
2024/03/18 05:49:20;;;;;;;20.55;17.92;;;;;;;;;;5004781;28;20253;-40
2024/03/18 05:51:48;;;;;;;22.23;18.58;;;;;;;;;;5005129;28;20089;-40
2024/03/18 05:54:18;;;;;;;22.77;18.23;;;;;;;;;;5004497;28;20266;-49
2024/03/18 05:56:46;;;;;;;22.02;18.58;;;;;;;;;;5004928;28;20065;-49
2024/03/18 05:59:14;;;;;;;20.15;17.70;;;;;;;;;;5004349;28;20093;-41
2024/03/18 06:01:41;;;;;;;21.10;18.38;;;;;;;;;;5004780;28;20202;-35
2024/03/18 06:04:08;;;;;;;19.83;17.83;;;;;;;;;;5004191;28;20018;-40
2024/03/18 06:06:35;;;;;;;21.05;18.83;;;;;;;;;;5004466;28;20042;-38
2024/03/18 06:09:04;;;;;;;21.45;18.00;;;;;;;;;;5004479;28;20033;-35
2024/03/18 06:11:33;;;;;;;21.30;17.92;;;;;;;;;;5004693;28;20037;-38
2024/03/18 06:14:01;;;;;;;26.67;18.17;;;;;;;;;;5004535;28;20033;-44
2024/03/18 06:16:28;;;;;;;20.70;18.50;;;;;;;;;;5004625;28;20034;-38
2024/03/18 06:18:54;;;;;;;22.30;18.10;;;;;;;;;;5004046;28;20088;-48
2024/03/18 06:21:27;;;;;;;23.70;18.58;;;;;;;;;;5004538;28;20025;-48
2024/03/18 06:24:05;;;;;;;20.52;18.30;;;;;;;;;;5004492;28;20053;-37
2024/03/18 06:26:32;;;;;;;22.67;18.92;;;;;;;;;;5004627;28;20042;-37
2024/03/18 06:28:58;;;;;;;23.17;18.75;;;;;;;;;;5004191;28;20210;-40
2024/03/18 06:31:26;;;;;;;20.38;18.20;;;;;;;;;;5004138;28;20300;-45
2024/03/18 06:33:53;;;;;;;21.98;17.58;;;;;;;;;;5003977;28;20034;-35
2024/03/18 06:36:20;;;;;;;21.10;18.77;;;;;;;;;;5004562;28;20023;-34
2024/03/18 06:38:47;;;;;;;19.80;17.65;;;;;;;;;;5003988;28;20022;-34
2024/03/18 06:41:14;;;;;;;22.58;18.10;;;;;;;;;;5004022;28;20054;-43
2024/03/18 06:43:40;;;;;;;19.63;17.10;;;;;;;;;;5004107;28;20023;-41
2024/03/18 06:46:09;;;;;;;20.60;18.50;;;;;;;;;;5004314;28;20034;-34
2024/03/18 06:48:36;;;;;;;21.15;18.45;;;;;;;;;;5003827;28;20349;-36
2024/03/18 06:51:02;;;;;;;21.00;18.00;;;;;;;;;;5004340;28;20030;-36
2024/03/18 06:53:29;;;;;;;20.35;18.08;;;;;;;;;;5003926;28;20022;-40
2024/03/18 06:55:56;;;;;;;20.48;17.90;;;;;;;;;;5004034;28;20097;-34
2024/03/18 06:58:26;;;;;;;20.02;17.80;;;;;;;;;;5003812;28;20015;-37
2024/03/18 07:00:54;;;;;;;19.25;17.42;;;;;;;;;;5004111;28;20319;-35
2024/03/18 07:03:21;;;;;;;20.88;18.75;;;;;;;;;;5003674;28;20077;-36
2024/03/18 07:05:48;;;;;;;22.25;17.95;;;;;;;;;;5004256;28;20033;-43
2024/03/18 07:08:15;;;;;;;20.90;17.73;;;;;;;;;;5003760;28;20018;-44
2024/03/18 07:10:41;;;;;;;20.88;17.67;;;;;;;;;;5003894;28;20081;-39
2024/03/18 07:13:08;;;;;;;21.63;17.30;;;;;;;;;;5003850;28;20210;-37
2024/03/18 07:15:35;;;;;;;20.85;17.70;;;;;;;;;;5004002;28;20101;-39
2024/03/18 07:18:01;;;;;;;22.13;19.13;;;;;;;;;;5007222;28;20210;-34
2024/03/18 07:20:28;;;;;;;20.08;17.77;;;;;;;;;;5007318;28;20053;-40
2024/03/18 07:22:55;;;;;;;20.83;18.00;;;;;;;;;;5007343;28;20023;-38
2024/03/18 07:25:21;;;;;;;21.98;18.50;;;;;;;;;;5007150;28;20033;-36
2024/03/18 07:27:48;;;;;;;19.25;17.35;;;;;;;;;;5007400;28;20014;-35
2024/03/18 07:30:17;;;;;;;19.92;17.77;;;;;;;;;;5007155;28;20054;-38
2024/03/18 07:32:44;;;;;;;23.30;18.17;;;;;;;;;;5006909;28;20026;-43
2024/03/18 07:35:14;;;;;;;21.02;17.98;;;;;;;;;;5007311;28;20089;-34
2024/03/18 07:37:44;;;;;;;19.33;17.15;;;;;;;;;;5006887;28;20046;-34
2024/03/18 07:40:14;;;;;;;19.85;17.80;;;;;;;;;;5006935;28;20053;-34
2024/03/18 07:42:41;;;;;;;19.80;17.90;;;;;;;;;;5006975;28;20033;-37
2024/03/18 07:45:08;;;;;;;20.17;18.05;;;;;;;;;;5006908;28;20291;-34
2024/03/18 07:47:35;;;;;;;19.45;17.42;;;;;;;;;;5007007;28;20018;-37
2024/03/18 07:50:05;;;;;;;19.60;17.48;;;;;;;;;;5006774;28;20030;-34
2024/03/18 07:52:32;;;;;;;19.02;16.95;;;;;;;;;;5006664;28;20022;-40
2024/03/18 07:55:00;;;;;;;19.83;17.33;;;;;;;;;;5007079;28;20042;-34
2024/03/18 07:57:27;;;;;;;20.20;18.08;;;;;;;;;;5006601;28;20026;-34
2024/03/18 07:59:54;;;;;;;19.85;17.05;;;;;;;;;;5006342;28;20041;-36
2024/03/18 08:02:21;;;;;;;18.77;16.88;;;;;;;;;;5006459;28;20271;-38
2024/03/18 08:04:49;;;;;;;20.02;17.98;;;;;;;;;;5006612;28;20022;-38
2024/03/18 08:07:16;;;;;;;21.52;17.55;;;;;;;;;;5006304;28;20022;-36
2024/03/18 08:09:42;;;;;;;19.80;17.70;;;;;;;;;;5006610;28;20093;-34
2024/03/18 08:12:09;;;;;;;21.13;17.52;;;;;;;;;;5006383;28;20022;-34
2024/03/18 08:14:39;;;;;;;20.17;18.10;;;;;;;;;;5006270;28;20026;-37
2024/03/18 08:17:06;;;;;;;19.70;17.55;;;;;;;;;;5006185;28;20037;-34
2024/03/18 08:19:32;;;;;;;20.02;17.13;;;;;;;;;;5005983;28;20023;-35
2024/03/18 08:22:00;;;;;;;20.88;17.75;;;;;;;;;;5006153;28;20026;-40
2024/03/18 08:24:26;;;;;;;20.92;17.85;;;;;;;;;;5006028;28;20062;-34
2024/03/18 08:26:56;;;;;;;19.92;17.88;;;;;;;;;;5006564;28;20030;-39
2024/03/18 08:29:22;;;;;;;21.13;18.80;;;;;;;;;;5005275;28;20314;-33
2024/03/18 08:31:49;;;;;;;19.55;17.55;;;;;;;;;;5006444;28;20046;-35
2024/03/18 08:34:15;;;;;;;20.13;18.05;;;;;;;;;;5005996;28;20397;-36
2024/03/18 08:36:42;;;;;;;20.63;17.60;;;;;;;;;;5006332;28;20040;-37
2024/03/18 08:39:09;;;;;;;23.77;18.58;;;;;;;;;;5005655;28;20049;-35
2024/03/18 08:41:36;;;;;;;21.60;18.45;;;;;;;;;;5006007;28;20046;-36
2024/03/18 08:44:02;;;;;;;27.90;18.23;;;;;;;;;;5005647;28;20097;-34
2024/03/18 08:46:29;;;;;;;22.92;17.80;;;;;;;;;;5005964;28;20057;-33
2024/03/18 08:48:55;;;;;;;23.25;17.75;;;;;;;;;;5005636;28;20072;-36
2024/03/18 08:51:22;;;;;;;23.10;17.75;;;;;;;;;;5005962;28;20060;-35
2024/03/18 08:53:48;;;;;;;20.45;17.77;;;;;;;;;;5005406;28;20089;-38
2024/03/18 08:56:15;;;;;;;19.02;17.02;;;;;;;;;;5005884;28;20034;-34
2024/03/18 08:58:42;;;;;;;26.45;17.73;;;;;;;;;;5005293;28;20022;-35
2024/03/18 09:01:09;;;;;;;24.33;18.13;;;;;;;;;;5005153;28;20026;-37
2024/03/18 09:03:37;;;;;;;21.13;18.27;;;;;;;;;;5005291;28;20022;-35
2024/03/18 09:06:04;;;;;;;18.83;16.88;;;;;;;;;;5005586;28;20073;-34
2024/03/18 09:08:30;;;;;;;24.80;17.70;;;;;;;;;;5005240;28;20026;-34
2024/03/18 09:10:57;;;;;;;22.40;17.80;;;;;;;;;;5005608;28;20053;-34
2024/03/18 09:13:24;;;;;;;22.08;18.13;;;;;;;;;;5005104;28;20018;-35
2024/03/18 09:15:50;;;;;;;23.35;17.35;;;;;;;;;;5005174;28;20030;-36
2024/03/18 09:18:17;;;;;;;21.75;19.42;;;;;;;;;;5004999;28;20025;-36
2024/03/18 09:20:44;;;;;;;24.48;19.08;;;;;;;;;;5005356;28;20350;-34
2024/03/18 09:23:10;;;;;;;26.58;18.75;;;;;;;;;;5004960;28;20022;-37
2024/03/18 09:25:38;;;;;;;26.52;19.90;;;;;;;;;;5005161;28;20029;-39
2024/03/18 09:28:05;;;;;;;25.77;19.80;;;;;;;;;;5004932;28;20334;-35
2024/03/18 09:30:32;;;;;;;24.00;19.80;;;;;;;;;;5004903;28;20218;-37
2024/03/18 09:32:58;;;;;;;22.08;19.80;;;;;;;;;;5005103;28;20251;-34
2024/03/18 09:35:25;;;;;;;22.40;19.98;;;;;;;;;;5005007;28;20081;-35
2024/03/18 09:37:52;;;;;;;26.73;20.60;;;;;;;;;;5004720;28;20073;-34
2024/03/18 09:40:18;;;;;;;26.85;20.77;;;;;;;;;;5003784;28;20061;-40
2024/03/18 09:42:45;;;;;;;26.02;20.02;;;;;;;;;;5004734;28;20329;-40
2024/03/18 09:45:14;;;;;;;22.83;20.25;;;;;;;;;;5004522;28;20096;-35
2024/03/18 09:47:42;;;;;;;23.83;20.75;;;;;;;;;;5004597;28;20022;-37
2024/03/18 09:50:10;;;;;;;23.35;19.77;;;;;;;;;;5004626;28;20027;-40
2024/03/18 09:52:39;;;;;;;24.10;20.88;;;;;;;;;;5004414;28;20318;-34
2024/03/18 09:55:18;;;;;;;27.30;21.42;;;;;;;;;;5004542;28;20365;-38
2024/03/18 09:57:45;;;;;;;23.02;20.58;;;;;;;;;;5004444;28;20018;-38
2024/03/18 10:00:12;;;;;;;24.42;21.75;;;;;;;;;;5004343;28;20030;-38
2024/03/18 10:02:39;;;;;;;24.10;21.50;;;;;;;;;;5004285;28;20054;-41
2024/03/18 10:05:14;;;;;;;30.42;23.77;;;;;;;;;;5004405;28;20030;-37
2024/03/18 10:07:43;;;;;;;27.27;23.17;;;;;;;;;;5004497;28;20045;-35
2024/03/18 10:10:22;;;;;;;28.88;23.15;;;;;;;;;;5004381;28;20030;-37
2024/03/18 10:12:49;;;;;;;27.48;23.33;;;;;;;;;;5004216;28;20022;-39
2024/03/18 10:15:16;;;;;;;29.10;23.55;;;;;;;;;;5004358;28;20041;-40
2024/03/18 10:17:42;;;;;;;31.45;24.90;;;;;;;;;;5004258;28;20046;-39
2024/03/18 10:20:18;;;;;;;35.85;25.33;;;;;;;;;;5004120;28;20097;-39
2024/03/18 10:22:48;;;;;;;38.22;25.33;;;;;;;;;;5004219;28;20038;-35
2024/03/18 10:25:16;;;;;;;31.90;25.35;;;;;;;;;;5004155;28;20093;-34
2024/03/18 10:27:43;;;;;;;29.67;24.27;;;;;;;;;;5004139;28;20081;-40
2024/03/18 10:30:14;;;;;;;27.88;23.67;;;;;;;;;;5004159;28;20090;-43
2024/03/18 10:32:44;;;;;;;32.75;23.45;;;;;;;;;;5003949;28;20022;-34
2024/03/18 10:35:17;;;;;;;26.65;22.80;;;;;;;;;;5004149;28;20030;-37
2024/03/18 10:37:45;;;;;;;26.52;22.90;;;;;;;;;;5004269;28;20022;-45
2024/03/18 10:40:14;;;;;;;26.25;22.25;;;;;;;;;;5003809;28;20242;-37
2024/03/18 10:42:45;;;;;;;28.85;23.45;;;;;;;;;;5004157;28;20215;-33
2024/03/18 10:45:14;;;;;;;25.98;23.27;;;;;;;;;;5003967;28;20028;-38
2024/03/18 10:47:41;;;;;;;26.10;23.30;;;;;;;;;;5004150;28;20015;-34
2024/03/18 10:50:13;;;;;;;25.88;22.95;;;;;;;;;;5004169;28;20031;-42
2024/03/18 10:52:40;;;;;;;26.05;22.88;;;;;;;;;;5007331;28;20331;-42
2024/03/18 10:55:15;;;;;;;26.10;23.33;;;;;;;;;;5007935;28;20080;-44
2024/03/18 10:57:42;;;;;;;25.33;22.70;;;;;;;;;;5007790;28;20042;-41
2024/03/18 11:00:11;;;;;;;25.83;23.00;;;;;;;;;;5007580;28;20405;-43
2024/03/18 11:02:38;;;;;;;26.60;23.83;;;;;;;;;;5007576;28;20373;-44
2024/03/18 11:05:04;;;;;;;26.98;24.10;;;;;;;;;;5007745;28;20030;-45
2024/03/18 11:07:34;;;;;;;28.35;24.05;;;;;;;;;;5007457;28;20022;-41
2024/03/18 11:10:11;;;;;;;26.75;23.95;;;;;;;;;;5007471;28;20028;-43
2024/03/18 11:12:40;;;;;;;27.25;24.42;;;;;;;;;;5007257;28;20022;-46
2024/03/18 11:15:07;;;;;;;27.35;24.52;;;;;;;;;;5007458;28;20314;-42
2024/03/18 11:17:44;;;;;;;28.70;25.35;;;;;;;;;;5007306;28;20026;-41
2024/03/18 11:20:20;;;;;;;35.67;24.95;;;;;;;;;;5007289;28;20026;-43
2024/03/18 11:22:46;;;;;;;27.67;24.88;;;;;;;;;;5007303;28;20278;-49
2024/03/18 11:25:16;;;;;;;31.42;26.20;;;;;;;;;;5007133;28;20093;-39
2024/03/18 11:27:48;;;;;;;30.23;25.33;;;;;;;;;;5007270;28;20025;-41
2024/03/18 11:30:23;;;;;;;28.38;24.65;;;;;;;;;;5007247;28;20202;-34
2024/03/18 11:48:28;;;;;;;27.50;23.20;;;;;;;;;;5142314;27;20445;-40
2024/03/18 11:50:55;;;;;;;28.70;21.95;;;;;;;;;;5142183;28;20038;-38
2024/03/18 11:53:22;;;;;;;26.33;23.73;;;;;;;;;;5142271;28;20096;-39
2024/03/18 11:55:52;;;;;;;25.77;23.05;;;;;;;;;;5141849;28;20031;-41
2024/03/18 11:58:19;;;;;;;26.60;23.08;;;;;;;;;;5142038;28;20031;-40
2024/03/18 12:00:47;;;;;;;26.42;23.67;;;;;;;;;;5141991;28;20052;-40
2024/03/18 12:03:14;;;;;;;25.60;23.15;;;;;;;;;;5141800;28;20035;-42
2024/03/18 12:05:45;;;;;;;26.85;23.33;;;;;;;;;;5141930;28;20015;-43
2024/03/18 12:08:24;;;;;;;28.90;25.90;;;;;;;;;;5141958;28;20082;-42
2024/03/18 12:10:53;;;;;;;33.30;25.98;;;;;;;;;;5141849;28;20019;-41
2024/03/18 12:13:24;;;;;;;27.85;25.05;;;;;;;;;;5142040;28;20042;-44
2024/03/18 12:15:51;;;;;;;28.38;24.35;;;;;;;;;;5141551;28;20023;-47
2024/03/18 12:18:17;;;;;;;31.73;25.73;;;;;;;;;;5141943;28;20026;-55
2024/03/18 12:21:16;;;;;;;30.73;25.73;;;;;;;;;;5101906;28;20387;-49
2024/03/18 12:29:22;;;;;;;26.65;23.80;;;;;;;;;;5101511;28;20370;-50
2024/03/18 12:31:48;;;;;;;30.85;24.17;;;;;;;;;;5101258;28;20054;-49
2024/03/18 12:34:16;;;;;;;29.83;23.95;;;;;;;;;;5101336;28;20028;-49
2024/03/18 12:36:47;;;;;;;26.90;23.75;;;;;;;;;;5101019;28;20023;-49
2024/03/18 12:39:15;;;;;;;32.45;23.88;;;;;;;;;;5101338;28;20036;-49
2024/03/18 12:41:42;;;;;;;32.78;24.52;;;;;;;;;;5101097;28;20062;-50
2024/03/18 12:44:09;;;;;;;26.83;23.98;;;;;;;;;;5101064;28;20027;-48
2024/03/18 12:46:35;;;;;;;30.25;23.85;;;;;;;;;;5101108;28;20311;-48
2024/03/18 12:49:05;;;;;;;27.08;24.38;;;;;;;;;;5101150;28;20081;-49
2024/03/18 12:51:33;;;;;;;29.95;24.73;;;;;;;;;;5100816;28;20020;-50
2024/03/18 12:54:00;;;;;;;26.92;24.10;;;;;;;;;;5100948;28;20043;-53
2024/03/18 12:56:27;;;;;;;26.90;24.25;;;;;;;;;;5100934;28;20083;-51
2024/03/18 12:58:53;;;;;;;27.67;24.83;;;;;;;;;;5100589;28;20016;-48
2024/03/18 13:01:20;;;;;;;26.77;24.20;;;;;;;;;;5101042;28;20053;-51
2024/03/18 13:03:46;;;;;;;27.98;25.15;;;;;;;;;;5100579;28;20019;-49
2024/03/18 13:06:13;;;;;;;27.20;24.33;;;;;;;;;;5100781;28;20023;-51
2024/03/18 13:08:40;;;;;;;27.90;25.27;;;;;;;;;;5100604;28;20079;-48
2024/03/18 13:11:11;;;;;;;26.15;23.65;;;;;;;;;;5100688;28;20031;-50
2024/03/18 13:13:43;;;;;;;26.65;24.10;;;;;;;;;;5100379;28;20024;-49
2024/03/18 13:16:15;;;;;;;27.55;24.65;;;;;;;;;;5100518;28;20028;-49
2024/03/18 13:18:43;;;;;;;27.48;24.42;;;;;;;;;;5100257;28;20028;-48
2024/03/18 13:21:13;;;;;;;27.58;24.80;;;;;;;;;;5100112;28;20063;-53
2024/03/18 13:23:40;;;;;;;27.73;24.77;;;;;;;;;;5100323;28;20031;-48
2024/03/18 13:26:10;;;;;;;26.33;23.67;;;;;;;;;;5100596;28;20304;-53
2024/03/18 13:28:37;;;;;;;28.20;25.38;;;;;;;;;;5100482;28;20212;-49
2024/03/18 13:31:07;;;;;;;27.33;24.48;;;;;;;;;;5095496;28;20307;-48
2024/03/18 13:33:33;;;;;;;27.58;24.08;;;;;;;;;;5086573;28;20031;-45
2024/03/18 13:36:00;;;;;;;28.33;24.63;;;;;;;;;;5087099;28;20125;-51
2024/03/18 13:38:27;;;;;;;29.15;24.10;;;;;;;;;;5086478;28;20027;-49
2024/03/18 13:40:55;;;;;;;27.60;24.70;;;;;;;;;;5086799;28;20028;-48
2024/03/18 13:43:22;;;;;;;32.33;24.65;;;;;;;;;;5086468;28;20241;-48
2024/03/18 13:45:51;;;;;;;33.78;25.88;;;;;;;;;;5086861;28;20024;-50
2024/03/18 13:48:17;;;;;;;27.38;24.52;;;;;;;;;;5086229;28;20044;-51
2024/03/18 13:50:45;;;;;;;31.13;25.58;;;;;;;;;;5086759;28;20430;-47
2024/03/18 13:53:12;;;;;;;36.03;25.35;;;;;;;;;;5086318;28;20025;-44
2024/03/18 13:55:38;;;;;;;28.73;25.73;;;;;;;;;;5086615;28;20031;-47
2024/03/18 13:58:08;;;;;;;28.42;25.17;;;;;;;;;;5086477;28;20078;-44
2024/03/18 14:00:36;;;;;;;27.67;24.77;;;;;;;;;;5086429;28;20036;-44
2024/03/18 14:03:05;;;;;;;28.20;24.83;;;;;;;;;;5085975;28;20016;-47
2024/03/18 14:05:32;;;;;;;27.42;24.63;;;;;;;;;;5086371;28;20246;-46
2024/03/18 14:07:59;;;;;;;27.58;24.90;;;;;;;;;;5085966;28;20358;-50
2024/03/18 14:10:26;;;;;;;28.33;25.45;;;;;;;;;;5086115;28;20249;-48
2024/03/18 14:12:52;;;;;;;29.45;25.67;;;;;;;;;;5085793;28;20024;-52
2024/03/18 14:15:19;;;;;;;27.40;24.50;;;;;;;;;;5086312;28;20032;-49
2024/03/18 14:17:46;;;;;;;27.42;24.55;;;;;;;;;;5085713;28;20065;-53
2024/03/18 14:20:12;;;;;;;27.60;24.83;;;;;;;;;;5085667;28;20056;-49
2024/03/18 14:22:39;;;;;;;29.38;26.27;;;;;;;;;;5085706;28;20044;-42
2024/03/18 14:25:17;;;;;;;28.50;25.05;;;;;;;;;;5085955;28;20024;-44
2024/03/18 14:27:45;;;;;;;29.08;25.92;;;;;;;;;;5085682;28;20016;-42
2024/03/18 14:30:12;;;;;;;29.45;26.17;;;;;;;;;;5085866;28;20032;-44
2024/03/18 14:32:39;;;;;;;28.20;25.50;;;;;;;;;;5085355;28;20024;-43
2024/03/18 14:35:05;;;;;;;28.42;25.38;;;;;;;;;;5085891;28;20028;-46
2024/03/18 14:37:32;;;;;;;28.48;25.42;;;;;;;;;;5085443;28;20031;-49
2024/03/18 14:39:58;;;;;;;29.27;26.00;;;;;;;;;;5085492;28;20032;-45